FIN71 EFHK-EDDM
Flight info
| Callsign | FIN71 |
|---|---|
| Flight time | N/A |
| Altitude | 40000 |
| Route | VALOX DCT DANKA DCT ROSAX DCT LEMSI DCT PIMEX DCT ANFEV DCT PENOR DCT GOVEN DCT KOBUS DCT MAREM DCT BALTU DCT VESUB T106 TUSTO T108 LANDU |
| Aircraft | A359/H-SDE2E3GHIJ3J4J5LM1ORWXY/LB1D1 |
Departure
| Time | N/A |
|---|---|
| Airport | Helsinki Vantaa Airport (EFHK) |
Arrival
| Time | 2026-04-30 19:15 |
|---|---|
| Airport | Munich Airport (EDDM) |
| Time | Latitude | Longitude | Altitude | Speed | Heading |
|---|---|---|---|---|---|
| 2026-04-30 17:39 | 57.87459 | 20.61632 | 40320 ft | 514 kts | 226° |
| 2026-04-30 17:42 | 57.61196 | 20.16277 | 40329 ft | 514 kts | 225° |
| 2026-04-30 17:43 | 57.48031 | 19.93891 | 40338 ft | 513 kts | 225° |
| 2026-04-30 17:44 | 57.32165 | 19.67214 | 40343 ft | 512 kts | 225° |
| 2026-04-30 17:47 | 57.08313 | 19.27712 | 40347 ft | 512 kts | 224° |
| 2026-04-30 17:48 | 56.89667 | 18.97326 | 40345 ft | 512 kts | 224° |
| 2026-04-30 17:50 | 56.68342 | 18.63082 | 40340 ft | 511 kts | 224° |
| 2026-04-30 17:52 | 56.52310 | 18.37691 | 40347 ft | 510 kts | 223° |
| 2026-04-30 17:54 | 56.28153 | 17.99983 | 40357 ft | 509 kts | 223° |
| 2026-04-30 17:56 | 56.06644 | 17.66955 | 40357 ft | 509 kts | 223° |
| 2026-04-30 17:58 | 55.90477 | 17.42459 | 40358 ft | 509 kts | 222° |
| 2026-04-30 18:00 | 55.66342 | 17.17322 | 40362 ft | 512 kts | 197° |
| 2026-04-30 18:01 | 55.49726 | 17.05801 | 40367 ft | 513 kts | 203° |
| 2026-04-30 18:02 | 55.29938 | 16.91351 | 40371 ft | 513 kts | 202° |
| 2026-04-30 18:04 | 55.10134 | 16.77094 | 40375 ft | 514 kts | 202° |
| 2026-04-30 18:06 | 54.83641 | 16.58256 | 40377 ft | 514 kts | 202° |
| 2026-04-30 18:08 | 54.60422 | 16.41965 | 40382 ft | 514 kts | 202° |
| 2026-04-30 18:10 | 54.33880 | 16.23587 | 40394 ft | 515 kts | 201° |
| 2026-04-30 18:11 | 54.10566 | 16.07654 | 40399 ft | 515 kts | 201° |
| 2026-04-30 18:13 | 53.93937 | 15.96408 | 40404 ft | 515 kts | 201° |
| 2026-04-30 18:14 | 53.77304 | 15.85255 | 40406 ft | 515 kts | 201° |
| 2026-04-30 18:15 | 53.58403 | 15.72695 | 40409 ft | 516 kts | 201° |
| 2026-04-30 18:16 | 53.45032 | 15.63884 | 40406 ft | 515 kts | 201° |
| 2026-04-30 18:17 | 53.38350 | 15.59503 | 40409 ft | 515 kts | 201° |
| 2026-04-30 18:18 | 53.28318 | 15.52953 | 40409 ft | 515 kts | 201° |
| 2026-04-30 18:18 | 53.21676 | 15.48635 | 40406 ft | 515 kts | 200° |
| 2026-04-30 18:19 | 53.14999 | 15.44308 | 40409 ft | 515 kts | 200° |
| 2026-04-30 18:19 | 53.08309 | 15.39987 | 40410 ft | 515 kts | 200° |
| 2026-04-30 18:20 | 53.01613 | 15.35678 | 40405 ft | 515 kts | 200° |
| 2026-04-30 18:20 | 52.94915 | 15.31381 | 40406 ft | 515 kts | 200° |
| 2026-04-30 18:21 | 52.88224 | 15.27103 | 40407 ft | 515 kts | 200° |
| 2026-04-30 18:21 | 52.81570 | 15.22862 | 40408 ft | 515 kts | 200° |
| 2026-04-30 18:22 | 52.74874 | 15.18609 | 40405 ft | 515 kts | 200° |
| 2026-04-30 18:22 | 52.64827 | 15.12254 | 40407 ft | 515 kts | 200° |
| 2026-04-30 18:23 | 52.58126 | 15.08032 | 40407 ft | 515 kts | 200° |
| 2026-04-30 18:23 | 52.51424 | 15.03824 | 40407 ft | 515 kts | 200° |
| 2026-04-30 18:24 | 52.41416 | 14.97565 | 40410 ft | 515 kts | 200° |
| 2026-04-30 18:25 | 52.34704 | 14.93385 | 40404 ft | 515 kts | 200° |
| 2026-04-30 18:25 | 52.24644 | 14.87145 | 40410 ft | 515 kts | 200° |
| 2026-04-30 18:26 | 52.14596 | 14.80942 | 40411 ft | 515 kts | 200° |
| 2026-04-30 18:27 | 52.04685 | 14.74369 | 40419 ft | 515 kts | 208° |
| 2026-04-30 18:28 | 51.95303 | 14.65820 | 40412 ft | 515 kts | 210° |
| 2026-04-30 18:28 | 51.86043 | 14.57143 | 40413 ft | 515 kts | 210° |
| 2026-04-30 18:29 | 51.73618 | 14.45649 | 40416 ft | 514 kts | 210° |
| 2026-04-30 18:30 | 51.61162 | 14.34222 | 40421 ft | 514 kts | 210° |
| 2026-04-30 18:31 | 51.51834 | 14.25710 | 40421 ft | 514 kts | 210° |
| 2026-04-30 18:32 | 51.42291 | 14.17816 | 40424 ft | 514 kts | 205° |
| 2026-04-30 18:33 | 51.32647 | 14.10402 | 40428 ft | 514 kts | 205° |
| 2026-04-30 18:33 | 51.23045 | 14.02876 | 40426 ft | 514 kts | 206° |
| 2026-04-30 18:34 | 51.13421 | 13.95320 | 40428 ft | 514 kts | 206° |
| 2026-04-30 18:35 | 51.06999 | 13.90300 | 40428 ft | 513 kts | 206° |
| 2026-04-30 18:35 | 51.00581 | 13.85303 | 40428 ft | 513 kts | 206° |
| 2026-04-30 18:36 | 50.94185 | 13.80337 | 39858 ft | 511 kts | 206° |
| 2026-04-30 18:36 | 50.91009 | 13.77877 | 39046 ft | 517 kts | 205° |
| 2026-04-30 18:36 | 50.84476 | 13.72826 | 37201 ft | 526 kts | 205° |
| 2026-04-30 18:37 | 50.81169 | 13.70275 | 36379 ft | 529 kts | 204° |
| 2026-04-30 18:37 | 50.77863 | 13.67729 | 35629 ft | 530 kts | 204° |
| 2026-04-30 18:37 | 50.74544 | 13.65177 | 35034 ft | 528 kts | 204° |
| 2026-04-30 18:37 | 50.71193 | 13.62883 | 34594 ft | 522 kts | 196° |
| 2026-04-30 18:38 | 50.67752 | 13.61038 | 34450 ft | 521 kts | 195° |
| 2026-04-30 18:38 | 50.60859 | 13.57602 | 34437 ft | 520 kts | 194° |
| 2026-04-30 18:39 | 50.53897 | 13.54245 | 34433 ft | 520 kts | 193° |
| 2026-04-30 18:39 | 50.47025 | 13.50935 | 34432 ft | 520 kts | 193° |
| 2026-04-30 18:40 | 50.40099 | 13.47593 | 34432 ft | 521 kts | 193° |
| 2026-04-30 18:40 | 50.33171 | 13.44251 | 34433 ft | 521 kts | 193° |
| 2026-04-30 18:41 | 50.26227 | 13.40912 | 34428 ft | 521 kts | 193° |
| 2026-04-30 18:41 | 50.19281 | 13.37584 | 34420 ft | 521 kts | 193° |
| 2026-04-30 18:42 | 50.12382 | 13.34288 | 34421 ft | 521 kts | 193° |
| 2026-04-30 18:42 | 50.01962 | 13.29234 | 34423 ft | 522 kts | 194° |
| 2026-04-30 18:45 | 49.65150 | 13.04668 | 34405 ft | 526 kts | 203° |
| 2026-04-30 18:46 | 49.58554 | 12.99729 | 34410 ft | 526 kts | 203° |
| 2026-04-30 18:46 | 49.51997 | 12.94832 | 33796 ft | 520 kts | 203° |
| 2026-04-30 18:46 | 49.48745 | 12.92410 | 33171 ft | 518 kts | 203° |
| 2026-04-30 18:47 | 49.45510 | 12.90003 | 32609 ft | 515 kts | 203° |
| 2026-04-30 18:47 | 49.42296 | 12.87616 | 32089 ft | 512 kts | 202° |
| 2026-04-30 18:47 | 49.39094 | 12.85241 | 31577 ft | 508 kts | 202° |
| 2026-04-30 18:47 | 49.35921 | 12.82891 | 31083 ft | 504 kts | 202° |
| 2026-04-30 18:48 | 49.32814 | 12.80593 | 30611 ft | 501 kts | 202° |
| 2026-04-30 18:48 | 49.29642 | 12.78252 | 30040 ft | 497 kts | 202° |
| 2026-04-30 18:48 | 49.26543 | 12.75968 | 29537 ft | 493 kts | 202° |
| 2026-04-30 18:48 | 49.23468 | 12.73704 | 29000 ft | 488 kts | 202° |
| 2026-04-30 18:49 | 49.20453 | 12.71488 | 28514 ft | 484 kts | 202° |
| 2026-04-30 18:49 | 49.17428 | 12.69267 | 28013 ft | 479 kts | 203° |
| 2026-04-30 18:49 | 49.14442 | 12.67078 | 27538 ft | 475 kts | 203° |
| 2026-04-30 18:49 | 49.11474 | 12.64903 | 27060 ft | 471 kts | 203° |
| 2026-04-30 18:50 | 49.08519 | 12.62744 | 26224 ft | 468 kts | 203° |
| 2026-04-30 18:50 | 49.05588 | 12.60604 | 24867 ft | 465 kts | 204° |
| 2026-04-30 18:50 | 49.02643 | 12.58458 | 23893 ft | 467 kts | 204° |
| 2026-04-30 18:50 | 48.99736 | 12.56339 | 23017 ft | 460 kts | 204° |
| 2026-04-30 18:51 | 48.96871 | 12.54251 | 22169 ft | 453 kts | 204° |
| 2026-04-30 18:51 | 48.94046 | 12.52196 | 21328 ft | 447 kts | 204° |
| 2026-04-30 18:51 | 48.91253 | 12.50167 | 20504 ft | 441 kts | 203° |
| 2026-04-30 18:51 | 48.88506 | 12.48174 | 19701 ft | 435 kts | 203° |
| 2026-04-30 18:52 | 48.85792 | 12.46209 | 18931 ft | 429 kts | 203° |
| 2026-04-30 18:52 | 48.83115 | 12.44273 | 18116 ft | 423 kts | 203° |
| 2026-04-30 18:52 | 48.80462 | 12.42358 | 17568 ft | 422 kts | 203° |
| 2026-04-30 18:52 | 48.77822 | 12.40455 | 17196 ft | 418 kts | 203° |
| 2026-04-30 18:53 | 48.75206 | 12.38571 | 16654 ft | 413 kts | 203° |
| 2026-04-30 18:53 | 48.72628 | 12.36715 | 16129 ft | 408 kts | 203° |
| 2026-04-30 18:53 | 48.70084 | 12.34885 | 15598 ft | 403 kts | 203° |
| 2026-04-30 18:53 | 48.67561 | 12.33074 | 15070 ft | 398 kts | 203° |
| 2026-04-30 18:54 | 48.65100 | 12.31308 | 14531 ft | 395 kts | 203° |
| 2026-04-30 18:54 | 48.62479 | 12.29312 | 13921 ft | 391 kts | 210° |
| 2026-04-30 18:54 | 48.60461 | 12.26592 | 13331 ft | 389 kts | 233° |
| 2026-04-30 18:55 | 48.59282 | 12.23010 | 13026 ft | 376 kts | 256° |
| 2026-04-30 18:55 | 48.58941 | 12.15410 | 12285 ft | 356 kts | 268° |
| 2026-04-30 18:55 | 48.58450 | 12.11768 | 11804 ft | 354 kts | 252° |
| 2026-04-30 18:56 | 48.56317 | 12.05141 | 11372 ft | 352 kts | 238° |
| 2026-04-30 18:56 | 48.54968 | 12.02070 | 11361 ft | 351 kts | 234° |
| 2026-04-30 18:56 | 48.53538 | 11.99082 | 11362 ft | 351 kts | 233° |
| 2026-04-30 18:57 | 48.50588 | 11.93223 | 11354 ft | 350 kts | 232° |
| 2026-04-30 18:57 | 48.49108 | 11.90307 | 11354 ft | 350 kts | 232° |
| 2026-04-30 18:57 | 48.47637 | 11.87390 | 11350 ft | 350 kts | 232° |
| 2026-04-30 18:58 | 48.45346 | 11.80956 | 11345 ft | 350 kts | 256° |
| 2026-04-30 18:58 | 48.44914 | 11.77394 | 11134 ft | 348 kts | 263° |
| 2026-04-30 18:58 | 48.44612 | 11.73780 | 10643 ft | 346 kts | 264° |
| 2026-04-30 18:59 | 48.44069 | 11.66821 | 10217 ft | 322 kts | 264° |
| 2026-04-30 19:00 | 48.43413 | 11.58219 | 9414 ft | 303 kts | 264° |
| 2026-04-30 19:00 | 48.43106 | 11.54057 | 8873 ft | 300 kts | 264° |
| 2026-04-30 19:00 | 48.42664 | 11.47852 | 8088 ft | 296 kts | 264° |
| 2026-04-30 19:01 | 48.41784 | 11.42953 | 7393 ft | 292 kts | 235° |
| 2026-04-30 19:01 | 48.40372 | 11.40850 | 7026 ft | 284 kts | 209° |
| 2026-04-30 19:02 | 48.36661 | 11.39830 | 6190 ft | 270 kts | 170° |
| 2026-04-30 19:02 | 48.33746 | 11.42730 | 5435 ft | 249 kts | 118° |
| 2026-04-30 19:03 | 48.32287 | 11.47176 | 5114 ft | 226 kts | 102° |
| 2026-04-30 19:03 | 48.32582 | 11.51624 | 4754 ft | 210 kts | 78° |
| 2026-04-30 19:04 | 48.33260 | 11.55800 | 4270 ft | 205 kts | 77° |
| 2026-04-30 19:04 | 48.34051 | 11.59594 | 4005 ft | 171 kts | 63° |
| 2026-04-30 19:05 | 48.35527 | 11.62005 | 3999 ft | 151 kts | 73° |
| 2026-04-30 19:05 | 48.36134 | 11.64980 | 3984 ft | 153 kts | 61° |
| 2026-04-30 19:06 | 48.37943 | 11.66777 | 3993 ft | 159 kts | 34° |
| 2026-04-30 19:06 | 48.38919 | 11.67550 | 3994 ft | 159 kts | 34° |
| 2026-04-30 19:06 | 48.41084 | 11.69307 | 3999 ft | 195 kts | 34° |
| 2026-04-30 19:07 | 48.43703 | 11.69152 | 3993 ft | 222 kts | 333° |
| 2026-04-30 19:07 | 48.44742 | 11.67402 | 3995 ft | 230 kts | 299° |
| 2026-04-30 19:08 | 48.44994 | 11.62612 | 3997 ft | 233 kts | 265° |
| 2026-04-30 19:08 | 48.44698 | 11.57754 | 3996 ft | 232 kts | 264° |
| 2026-04-30 19:08 | 48.44548 | 11.55329 | 4004 ft | 232 kts | 264° |
| 2026-04-30 19:09 | 48.44259 | 11.50476 | 3999 ft | 233 kts | 264° |
| 2026-04-30 19:09 | 48.44110 | 11.48047 | 4000 ft | 233 kts | 264° |
| 2026-04-30 19:09 | 48.43923 | 11.45627 | 3991 ft | 233 kts | 258° |
| 2026-04-30 19:10 | 48.41913 | 11.42299 | 4004 ft | 216 kts | 190° |
| 2026-04-30 19:10 | 48.39002 | 11.41964 | 4001 ft | 210 kts | 174° |
| 2026-04-30 19:11 | 48.37557 | 11.42073 | 3991 ft | 205 kts | 161° |
| 2026-04-30 19:11 | 48.35661 | 11.44783 | 3998 ft | 189 kts | 115° |
| 2026-04-30 19:11 | 48.35050 | 11.46523 | 3993 ft | 182 kts | 114° |
| 2026-04-30 19:12 | 48.34502 | 11.48155 | 3985 ft | 170 kts | 110° |
| 2026-04-30 19:12 | 48.34300 | 11.49868 | 3997 ft | 165 kts | 91° |
| 2026-04-30 19:12 | 48.34353 | 11.51589 | 3999 ft | 165 kts | 85° |
| 2026-04-30 19:13 | 48.34637 | 11.55017 | 3995 ft | 166 kts | 85° |
| 2026-04-30 19:13 | 48.34823 | 11.58165 | 3922 ft | 129 kts | 89° |
| 2026-04-30 19:13 | 48.34853 | 11.59420 | 3754 ft | 113 kts | 86° |
| 2026-04-30 19:14 | 48.34929 | 11.60604 | 3468 ft | 111 kts | 84° |
| 2026-04-30 19:14 | 48.35005 | 11.61693 | 3262 ft | 100 kts | 85° |
| 2026-04-30 19:14 | 48.35107 | 11.62730 | 2850 ft | 105 kts | 80° |
| 2026-04-30 19:14 | 48.35324 | 11.63789 | 2394 ft | 112 kts | 70° |
| 2026-04-30 19:15 | 48.35581 | 11.64900 | 1939 ft | 115 kts | 77° |
| 2026-04-30 19:15 | 48.35794 | 11.67216 | 1497 ft | 96 kts | 88° |
| 2026-04-30 19:15 | 48.35779 | 11.67830 | 1477 ft | 4 kts | 339° |
| 2026-04-30 19:16 | 48.35777 | 11.67831 | 1477 ft | 0 kts | 330° |